createdAt,value
2024-01-09T00:00:50.364Z,0.50
2024-01-09T00:03:27.042Z,2.25
2024-01-09T00:07:31.232Z,14.00
2024-01-09T00:10:07.190Z,1.50
2024-01-09T00:12:33.141Z,3.00
2024-01-09T00:13:41.245Z,0.50
2024-01-09T00:14:58.323Z,0.00
2024-01-09T00:17:33.309Z,1.50
2024-01-09T00:20:04.158Z,2.50
2024-01-09T00:21:10.909Z,2.50
2024-01-09T00:24:50.495Z,6.50
2024-01-09T00:25:58.249Z,2.50
2024-01-09T00:27:16.530Z,0.50
2024-01-09T00:29:47.159Z,1.50
2024-01-09T00:30:59.437Z,0.50
2024-01-09T00:32:17.660Z,0.50
2024-01-09T00:33:26.365Z,0.50
2024-01-09T00:34:38.084Z,0.00
2024-01-09T00:35:55.762Z,0.50
2024-01-09T00:37:01.976Z,1.00
2024-01-09T00:43:49.616Z,1.00
2024-01-09T00:46:19.485Z,0.50
2024-01-09T00:47:24.966Z,0.00
2024-01-09T00:50:03.716Z,3.00
2024-01-09T00:53:41.561Z,0.50
2024-01-09T00:56:15.619Z,1.00
2024-01-09T01:09:38.296Z,1.00
2024-01-09T01:18:39.918Z,0.00
2024-01-09T01:19:57.072Z,1.00
2024-01-09T01:23:51.437Z,0.00
2024-01-09T01:31:47.997Z,0.50
2024-01-09T01:32:58.197Z,0.00
2024-01-09T01:38:25.220Z,1.00
2024-01-09T01:42:17.746Z,2.00
2024-01-09T01:55:41.063Z,0.50
2024-01-09T01:58:08.898Z,0.00
2024-01-09T01:59:29.248Z,1.50
2024-01-09T02:02:05.176Z,0.75
2024-01-09T02:08:39.493Z,2.00
2024-01-09T02:12:38.565Z,1.50
2024-01-09T02:19:11.253Z,1.00
2024-01-09T02:21:43.304Z,1.00
2024-01-09T02:22:48.624Z,0.00
2024-01-09T02:24:04.085Z,0.00
2024-01-09T02:25:18.305Z,1.75
2024-01-09T02:26:39.749Z,2.00
2024-01-09T02:27:38.565Z,2.00
2024-01-09T02:31:31.729Z,1.00
2024-01-09T02:35:31.886Z,0.25
2024-01-09T02:36:48.116Z,1.50
2024-01-09T02:43:31.207Z,1.00
2024-01-09T02:51:21.157Z,1.00
2024-01-09T02:57:51.644Z,0.50
2024-01-09T02:59:08.753Z,0.50
2024-01-09T03:00:17.874Z,1.00
2024-01-09T03:01:22.027Z,3.00
2024-01-09T03:02:25.713Z,0.25
2024-01-09T03:03:33.111Z,0.50
2024-01-09T03:04:39.172Z,0.75
2024-01-09T03:05:43.438Z,0.50
2024-01-09T03:06:48.059Z,0.50
2024-01-09T03:10:35.575Z,1.25
2024-01-09T03:11:39.752Z,1.00
2024-01-09T03:12:47.735Z,1.50
2024-01-09T03:14:01.007Z,1.50
2024-01-09T03:15:05.183Z,0.75
2024-01-09T03:16:09.229Z,1.00
2024-01-09T03:17:13.313Z,0.75
2024-01-09T03:18:17.854Z,0.50
2024-01-09T03:19:22.078Z,1.00
2024-01-09T03:20:25.965Z,1.00
2024-01-09T03:21:29.801Z,0.50
2024-01-09T03:22:33.775Z,1.00
2024-01-09T03:23:39.293Z,1.00
2024-01-09T03:24:43.667Z,1.25
2024-01-09T03:25:49.432Z,1.25
2024-01-09T03:26:53.132Z,1.00
2024-01-09T03:27:57.046Z,1.00
2024-01-09T03:29:00.920Z,1.00
2024-01-09T03:30:04.930Z,0.50
2024-01-09T03:31:08.802Z,1.00
2024-01-09T03:32:12.858Z,0.50
2024-01-09T03:33:17.242Z,0.75
2024-01-09T03:34:21.261Z,1.50
2024-01-09T03:35:29.838Z,2.00
2024-01-09T03:36:34.028Z,2.50
2024-01-09T03:37:38.181Z,1.00
2024-01-09T03:38:42.107Z,1.50
2024-01-09T03:39:46.159Z,2.00
2024-01-09T03:40:50.434Z,2.00
2024-01-09T03:41:54.620Z,2.00
2024-01-09T03:42:58.634Z,2.50
2024-01-09T03:44:02.805Z,2.00
2024-01-09T03:45:07.065Z,1.50
2024-01-09T03:46:13.007Z,2.00
2024-01-09T03:48:36.910Z,2.00
2024-01-09T03:49:40.697Z,1.50
2024-01-09T03:50:56.456Z,1.00
2024-01-09T03:52:00.280Z,1.75
2024-01-09T03:53:04.901Z,1.00
2024-01-09T03:54:11.800Z,1.00
2024-01-09T03:55:15.585Z,2.25
2024-01-09T03:56:19.548Z,3.00
2024-01-09T03:57:23.208Z,3.00
2024-01-09T03:58:26.897Z,2.00
2024-01-09T03:59:30.788Z,2.50
2024-01-09T04:00:36.364Z,3.00
2024-01-09T04:01:40.181Z,2.50
2024-01-09T04:02:46.103Z,1.50
2024-01-09T04:03:49.990Z,2.75
2024-01-09T04:04:53.850Z,1.75
2024-01-09T04:05:58.060Z,2.00
2024-01-09T04:07:01.894Z,3.00
2024-01-09T04:08:09.397Z,1.50
2024-01-09T04:09:13.335Z,2.00
2024-01-09T04:10:17.986Z,1.00
2024-01-09T04:11:31.258Z,3.25
2024-01-09T04:12:44.618Z,4.00
2024-01-09T04:13:49.965Z,3.00
2024-01-09T04:14:54.150Z,1.50
2024-01-09T04:15:58.341Z,1.50
2024-01-09T04:17:02.176Z,2.50
2024-01-09T04:18:06.850Z,2.75
2024-01-09T04:19:12.473Z,2.50
2024-01-09T04:20:16.857Z,2.75
2024-01-09T04:21:21.137Z,3.00
2024-01-09T04:22:25.147Z,3.00
2024-01-09T04:23:29.069Z,3.50
2024-01-09T04:24:33.042Z,4.00
2024-01-09T04:25:36.635Z,2.50
2024-01-09T04:26:40.691Z,3.00
2024-01-09T04:27:44.372Z,3.00
2024-01-09T04:28:50.584Z,2.00
2024-01-09T04:29:56.168Z,1.50
2024-01-09T04:31:00.017Z,2.50
2024-01-09T04:32:04.445Z,2.75
2024-01-09T04:33:08.038Z,2.50
2024-01-09T04:34:11.778Z,2.00
2024-01-09T04:35:15.540Z,2.00
2024-01-09T04:36:19.279Z,3.00
2024-01-09T04:37:23.292Z,3.00
2024-01-09T04:38:27.650Z,2.00
2024-01-09T04:39:31.382Z,2.50
2024-01-09T04:40:35.137Z,2.00
2024-01-09T04:41:38.696Z,1.75
2024-01-09T04:42:42.475Z,1.50
2024-01-09T04:43:46.106Z,2.75
2024-01-09T04:44:49.923Z,3.00
2024-01-09T04:45:58.824Z,2.75
2024-01-09T04:47:02.557Z,2.00
2024-01-09T04:48:11.585Z,2.00
2024-01-09T04:49:17.295Z,2.25
2024-01-09T04:50:21.116Z,3.00
2024-01-09T04:51:25.052Z,2.75
2024-01-09T04:52:28.751Z,3.00
2024-01-09T04:53:41.618Z,2.00
2024-01-09T04:54:45.483Z,2.50
2024-01-09T04:55:51.685Z,1.50
2024-01-09T04:58:21.231Z,2.75
2024-01-09T04:59:29.702Z,2.25
2024-01-09T05:00:33.794Z,2.50
2024-01-09T05:01:42.776Z,2.25
2024-01-09T05:02:46.939Z,0.75
2024-01-09T05:03:51.478Z,2.00
2024-01-09T05:04:55.741Z,2.00
2024-01-09T05:05:59.729Z,3.00
2024-01-09T05:07:03.784Z,1.50
2024-01-09T05:08:07.599Z,1.00
2024-01-09T05:09:11.275Z,2.00
2024-01-09T05:10:20.751Z,2.25
2024-01-09T05:11:24.478Z,1.50
2024-01-09T05:12:37.155Z,2.00
2024-01-09T05:13:49.193Z,1.25
2024-01-09T05:14:53.077Z,2.00
2024-01-09T05:16:06.178Z,2.00
2024-01-09T05:18:31.055Z,1.50
2024-01-09T05:19:39.686Z,2.00
2024-01-09T05:20:45.602Z,2.50
2024-01-09T05:21:49.598Z,2.00
2024-01-09T05:22:53.394Z,2.00
2024-01-09T05:23:57.149Z,1.00
2024-01-09T05:25:00.846Z,1.75
2024-01-09T05:26:05.500Z,2.00
2024-01-09T05:27:10.470Z,1.50
2024-01-09T05:28:17.784Z,2.00
2024-01-09T05:29:21.702Z,2.50
2024-01-09T05:30:25.603Z,2.00
2024-01-09T05:31:29.517Z,1.50
2024-01-09T05:32:35.849Z,1.50
2024-01-09T05:33:40.172Z,1.75
2024-01-09T05:34:48.597Z,2.00
2024-01-09T05:35:52.245Z,1.75
2024-01-09T05:36:58.943Z,2.00
2024-01-09T05:38:11.057Z,3.25
2024-01-09T05:39:09.694Z,3.50
2024-01-09T05:40:13.482Z,3.00
2024-01-09T05:41:21.764Z,3.00
2024-01-09T05:42:27.392Z,2.25
2024-01-09T05:43:31.607Z,2.50
2024-01-09T05:44:35.258Z,1.75
2024-01-09T05:45:40.679Z,2.00
2024-01-09T05:46:45.784Z,2.25
2024-01-09T05:48:00.632Z,2.25
2024-01-09T05:49:04.496Z,2.50
2024-01-09T05:50:10.881Z,3.50
2024-01-09T05:51:14.591Z,2.75
2024-01-09T05:52:18.547Z,2.75
2024-01-09T05:53:22.341Z,2.00
2024-01-09T05:54:43.339Z,2.00
2024-01-09T05:55:50.154Z,2.50
2024-01-09T05:56:57.129Z,2.00
2024-01-09T05:58:01.007Z,1.50
2024-01-09T05:59:05.096Z,2.50
2024-01-09T06:00:08.784Z,3.00
2024-01-09T06:01:17.747Z,2.00
2024-01-09T06:02:21.799Z,2.25
2024-01-09T06:03:26.083Z,2.50
2024-01-09T06:04:29.874Z,1.00
2024-01-09T06:05:33.867Z,1.50
2024-01-09T06:08:10.645Z,2.00
2024-01-09T06:09:14.787Z,1.75
2024-01-09T06:10:19.481Z,2.50
2024-01-09T06:11:25.279Z,2.00
2024-01-09T06:12:31.807Z,3.00
2024-01-09T06:13:37.653Z,2.25
2024-01-09T06:14:49.988Z,2.00
2024-01-09T06:15:55.257Z,3.25
2024-01-09T06:16:59.630Z,3.50
2024-01-09T06:18:10.436Z,4.00
2024-01-09T06:19:15.420Z,4.00
2024-01-09T06:20:19.560Z,2.75
2024-01-09T06:21:32.319Z,2.50
2024-01-09T06:22:37.300Z,2.50
2024-01-09T06:23:42.137Z,2.25
2024-01-09T06:24:47.029Z,3.50
2024-01-09T06:25:51.661Z,3.25
2024-01-09T06:26:57.133Z,3.00
2024-01-09T06:28:11.724Z,2.00
2024-01-09T06:29:17.078Z,2.00
2024-01-09T06:30:21.502Z,2.50
2024-01-09T06:31:26.615Z,3.50
2024-01-09T06:32:31.231Z,4.50
2024-01-09T06:33:38.060Z,3.75
2024-01-09T06:34:43.336Z,3.75
2024-01-09T06:35:59.175Z,4.00
2024-01-09T06:37:07.193Z,3.50
2024-01-09T06:38:16.472Z,3.00
2024-01-09T06:39:30.672Z,3.50
2024-01-09T06:40:36.097Z,4.00
2024-01-09T06:41:46.367Z,4.00
2024-01-09T06:42:51.087Z,4.00
2024-01-09T06:43:56.274Z,4.00
2024-01-09T06:45:06.975Z,3.00
2024-01-09T06:46:13.921Z,2.25
2024-01-09T06:47:34.480Z,3.00
2024-01-09T06:48:39.270Z,4.00
2024-01-09T06:49:44.204Z,4.00
2024-01-09T06:50:54.231Z,3.00
2024-01-09T06:52:06.741Z,2.67
2024-01-09T06:53:11.999Z,3.00
2024-01-09T06:54:16.328Z,2.50
2024-01-09T06:55:31.815Z,3.00
2024-01-09T06:56:37.383Z,3.25
2024-01-09T06:57:47.632Z,2.00
2024-01-09T06:58:54.076Z,2.50
2024-01-09T06:59:58.855Z,3.00
2024-01-09T07:01:03.896Z,2.75
2024-01-09T07:02:09.143Z,2.00
2024-01-09T07:03:13.431Z,2.00
2024-01-09T07:04:17.674Z,2.50
2024-01-09T07:05:23.892Z,4.00
2024-01-09T07:06:30.430Z,3.50
2024-01-09T07:07:48.669Z,3.50
2024-01-09T07:08:47.206Z,3.00
2024-01-09T07:09:52.383Z,4.25
2024-01-09T07:11:05.402Z,4.50
2024-01-09T07:12:09.401Z,4.00
2024-01-09T07:13:13.508Z,3.50
2024-01-09T07:14:18.760Z,3.00
2024-01-09T07:15:23.321Z,3.00
2024-01-09T07:16:36.847Z,3.00
2024-01-09T07:17:46.344Z,3.00
2024-01-09T07:18:51.535Z,2.50
2024-01-09T07:19:56.493Z,3.00
2024-01-09T07:21:04.816Z,2.50
2024-01-09T07:22:18.369Z,3.00
2024-01-09T07:23:24.766Z,4.00
2024-01-09T07:24:33.277Z,3.00
2024-01-09T07:25:38.362Z,3.00
2024-01-09T07:26:47.099Z,1.75
2024-01-09T07:27:52.077Z,1.75
2024-01-09T07:29:04.399Z,3.00
2024-01-09T07:30:09.545Z,4.00
2024-01-09T07:31:13.750Z,4.00
2024-01-09T07:32:18.495Z,4.25
2024-01-09T07:33:24.942Z,5.50
2024-01-09T07:35:56.555Z,5.25
2024-01-09T07:37:05.186Z,4.00
2024-01-09T07:38:11.225Z,3.00
2024-01-09T07:39:19.454Z,2.25
2024-01-09T07:43:07.575Z,2.75
2024-01-09T07:44:12.326Z,3.50
2024-01-09T07:45:16.801Z,4.00
2024-01-09T07:46:20.808Z,5.00
2024-01-09T07:47:25.793Z,5.00
2024-01-09T07:48:32.997Z,4.00
2024-01-09T07:49:37.569Z,4.25
2024-01-09T07:50:42.222Z,4.00
2024-01-09T07:51:46.549Z,4.00
2024-01-09T07:52:52.499Z,4.75
2024-01-09T07:53:56.968Z,5.00
2024-01-09T07:55:03.877Z,3.50
2024-01-09T07:56:08.703Z,3.00
2024-01-09T07:57:21.561Z,5.25
2024-01-09T07:58:22.843Z,6.50
2024-01-09T07:59:39.174Z,5.50
2024-01-09T08:00:44.112Z,5.50
2024-01-09T08:01:51.450Z,7.00
2024-01-09T08:02:57.642Z,3.00
2024-01-09T08:04:02.324Z,4.50
2024-01-09T08:05:07.235Z,6.00
2024-01-09T08:06:13.691Z,6.25
2024-01-09T08:07:22.809Z,3.50
2024-01-09T08:08:27.484Z,4.50
2024-01-09T08:09:38.958Z,6.50
2024-01-09T08:10:43.753Z,9.50
2024-01-09T08:11:48.606Z,7.50
2024-01-09T08:12:53.468Z,4.00
2024-01-09T08:13:58.372Z,3.50
2024-01-09T08:15:04.595Z,3.00
2024-01-09T08:16:09.509Z,3.50
2024-01-09T08:17:15.032Z,2.50
2024-01-09T08:18:20.449Z,2.50
2024-01-09T08:19:27.738Z,3.25
2024-01-09T08:20:33.063Z,3.25
2024-01-09T08:21:40.820Z,2.50
2024-01-09T08:22:43.628Z,2.50
2024-01-09T08:23:49.016Z,4.25
2024-01-09T08:24:53.153Z,3.50
2024-01-09T08:25:57.976Z,3.00
2024-01-09T08:27:04.677Z,2.50
2024-01-09T08:28:09.254Z,2.25
2024-01-09T08:29:14.529Z,2.25
2024-01-09T08:30:19.984Z,1.75
2024-01-09T08:31:25.137Z,2.75
2024-01-09T08:32:32.540Z,3.75
2024-01-09T08:33:36.841Z,5.00
2024-01-09T08:34:41.174Z,4.50
2024-01-09T08:35:45.691Z,5.50
2024-01-09T08:36:49.320Z,5.00
2024-01-09T08:37:53.094Z,3.00
2024-01-09T08:38:57.177Z,2.00
2024-01-09T08:40:00.746Z,2.00
2024-01-09T08:41:04.303Z,2.00
2024-01-09T08:42:08.044Z,1.25
2024-01-09T08:43:12.089Z,2.25
2024-01-09T08:44:16.191Z,2.25
2024-01-09T08:45:20.300Z,3.50
2024-01-09T08:46:24.300Z,5.00
2024-01-09T08:47:28.222Z,3.50
2024-01-09T08:48:32.331Z,2.00
2024-01-09T08:49:36.300Z,3.25
2024-01-09T08:50:43.540Z,1.75
2024-01-09T08:51:47.825Z,1.25
2024-01-09T08:52:52.176Z,3.00
2024-01-09T08:53:56.261Z,5.00
2024-01-09T08:55:00.157Z,5.00
2024-01-09T08:56:04.023Z,2.00
2024-01-09T08:57:07.904Z,2.50
2024-01-09T08:58:11.813Z,2.00
2024-01-09T08:59:15.678Z,2.50
2024-01-09T09:00:19.619Z,3.75
2024-01-09T09:01:23.648Z,2.75
2024-01-09T09:02:27.785Z,2.25
2024-01-09T09:03:31.924Z,2.50
2024-01-09T09:04:36.126Z,2.50
2024-01-09T09:05:40.309Z,3.00
2024-01-09T09:06:44.453Z,3.00
2024-01-09T09:07:48.478Z,5.00
2024-01-09T09:08:52.508Z,4.00
2024-01-09T09:09:56.861Z,3.00
2024-01-09T09:11:02.336Z,2.00
2024-01-09T09:12:05.939Z,1.50
2024-01-09T09:13:09.977Z,2.00
2024-01-09T09:14:14.027Z,2.50
2024-01-09T09:15:18.093Z,5.50
2024-01-09T09:16:21.899Z,3.50
2024-01-09T09:17:26.025Z,2.00
2024-01-09T09:18:30.471Z,2.50
2024-01-09T09:19:34.702Z,2.50
2024-01-09T09:20:38.635Z,2.00
2024-01-09T09:21:42.681Z,2.50
2024-01-09T09:22:46.552Z,2.50
2024-01-09T09:23:50.410Z,2.50
2024-01-09T09:24:54.291Z,2.00
2024-01-09T09:25:57.827Z,2.25
2024-01-09T09:27:01.573Z,1.00
2024-01-09T09:28:05.233Z,1.50
2024-01-09T09:29:15.893Z,1.50
2024-01-09T09:30:14.834Z,1.50
2024-01-09T09:31:21.609Z,1.00
2024-01-09T09:32:25.498Z,1.00
2024-01-09T09:33:29.892Z,1.00
2024-01-09T09:34:33.747Z,1.50
2024-01-09T09:35:37.513Z,2.00
2024-01-09T09:36:41.068Z,0.50
2024-01-09T09:37:45.168Z,1.50
2024-01-09T09:38:48.838Z,1.00
2024-01-09T09:39:52.602Z,1.00
2024-01-09T09:40:57.521Z,1.25
2024-01-09T09:42:01.514Z,1.00
2024-01-09T09:43:05.475Z,1.50
2024-01-09T09:44:09.036Z,1.00
2024-01-09T09:45:12.678Z,1.00
2024-01-09T09:46:16.369Z,1.25
2024-01-09T09:47:20.113Z,2.50
2024-01-09T09:48:23.909Z,2.00
2024-01-09T09:49:27.653Z,0.75
2024-01-09T09:50:31.273Z,1.75
2024-01-09T09:51:35.086Z,1.50
2024-01-09T09:52:38.776Z,1.50
2024-01-09T09:53:42.283Z,2.00
2024-01-09T09:54:46.845Z,2.00
2024-01-09T09:55:50.663Z,1.75
2024-01-09T09:56:57.634Z,2.00
2024-01-09T09:58:01.335Z,3.00
2024-01-09T09:59:04.994Z,2.00
2024-01-09T10:00:08.621Z,1.00
2024-01-09T10:01:12.391Z,1.75
2024-01-09T10:02:16.404Z,2.00
2024-01-09T10:03:20.391Z,1.00
2024-01-09T10:04:24.150Z,2.00
2024-01-09T10:05:28.134Z,2.50
2024-01-09T10:06:32.126Z,1.25
2024-01-09T10:07:36.143Z,1.75
2024-01-09T10:08:39.946Z,1.50
2024-01-09T10:09:44.923Z,1.75
2024-01-09T10:10:48.561Z,1.50
2024-01-09T10:11:52.162Z,2.50
2024-01-09T10:12:55.958Z,2.00
2024-01-09T10:14:00.033Z,2.00
2024-01-09T10:15:03.774Z,1.00
2024-01-09T10:16:07.582Z,1.25
2024-01-09T10:17:11.306Z,1.50
2024-01-09T10:18:15.590Z,1.00
2024-01-09T10:20:34.966Z,1.00
2024-01-09T10:21:39.669Z,2.00
2024-01-09T10:22:44.550Z,2.00
2024-01-09T10:23:49.446Z,2.00
2024-01-09T10:25:01.067Z,1.75
2024-01-09T10:26:05.318Z,1.50
2024-01-09T10:27:09.597Z,2.00
2024-01-09T10:28:14.015Z,1.75
2024-01-09T10:29:19.086Z,1.50
2024-01-09T10:30:23.696Z,1.00
2024-01-09T10:31:28.465Z,2.00
2024-01-09T10:32:33.336Z,2.50
2024-01-09T10:33:38.148Z,2.75
2024-01-09T10:34:43.034Z,2.00
2024-01-09T10:35:49.519Z,2.00
2024-01-09T10:36:54.242Z,2.00
2024-01-09T10:37:59.005Z,2.50
2024-01-09T10:39:04.299Z,2.25
2024-01-09T10:40:09.191Z,2.00
2024-01-09T10:41:13.582Z,2.00
2024-01-09T10:42:18.416Z,0.50
2024-01-09T10:43:23.456Z,2.00
2024-01-09T10:44:27.689Z,2.00
2024-01-09T10:45:36.294Z,1.50
2024-01-09T10:46:43.457Z,2.00
2024-01-09T10:47:54.385Z,2.50
2024-01-09T10:48:58.876Z,1.50
2024-01-09T10:50:03.800Z,1.50
2024-01-09T10:51:09.888Z,2.00
2024-01-09T10:52:14.598Z,1.50
2024-01-09T10:53:19.082Z,2.25
2024-01-09T10:54:23.838Z,2.25
2024-01-09T10:55:33.498Z,3.00
2024-01-09T10:56:37.931Z,3.00
2024-01-09T10:57:42.390Z,2.25
2024-01-09T10:58:47.738Z,1.50
2024-01-09T10:59:51.972Z,2.00
2024-01-09T11:00:56.405Z,2.25
2024-01-09T11:02:00.848Z,1.50
2024-01-09T11:03:05.452Z,1.50
2024-01-09T11:04:09.977Z,2.00
2024-01-09T11:05:15.049Z,3.00
2024-01-09T11:06:19.919Z,2.00
2024-01-09T11:07:25.591Z,1.00
2024-01-09T11:08:30.771Z,2.25
2024-01-09T11:09:35.625Z,2.50
2024-01-09T11:10:40.151Z,2.50
2024-01-09T11:11:53.423Z,2.00
2024-01-09T11:12:58.228Z,1.75
2024-01-09T11:14:05.853Z,1.75
2024-01-09T11:15:10.699Z,2.00
2024-01-09T11:16:20.332Z,1.50
2024-01-09T11:17:25.456Z,2.50
2024-01-09T11:18:32.633Z,2.50
2024-01-09T11:19:36.464Z,2.50
2024-01-09T11:20:41.848Z,2.00
2024-01-09T11:21:47.294Z,3.00
2024-01-09T11:22:51.712Z,2.00
2024-01-09T11:23:56.651Z,2.50
2024-01-09T11:25:02.705Z,3.00
2024-01-09T11:26:07.928Z,2.50
2024-01-09T11:27:12.810Z,1.50
2024-01-09T11:28:17.737Z,2.50
2024-01-09T11:29:22.477Z,1.75
2024-01-09T11:30:27.898Z,2.00
2024-01-09T11:31:32.475Z,2.50
2024-01-09T11:32:38.023Z,3.00
2024-01-09T11:33:43.196Z,3.00
2024-01-09T11:34:47.740Z,3.00
2024-01-09T11:35:51.887Z,2.00
2024-01-09T11:36:56.607Z,2.25
2024-01-09T11:38:01.236Z,3.00
2024-01-09T11:39:06.306Z,2.25
2024-01-09T11:40:10.977Z,2.50
2024-01-09T11:41:16.123Z,2.50
2024-01-09T11:42:21.032Z,1.50
2024-01-09T11:43:25.901Z,1.75
2024-01-09T11:44:31.008Z,1.25
2024-01-09T11:45:35.380Z,1.50
2024-01-09T11:46:39.948Z,1.00
2024-01-09T11:47:56.456Z,1.75
2024-01-09T11:49:01.210Z,2.75
2024-01-09T11:50:06.487Z,2.25
2024-01-09T11:51:11.157Z,3.00
2024-01-09T11:52:15.965Z,2.00
2024-01-09T11:53:20.337Z,2.75
2024-01-09T11:54:25.039Z,2.50
2024-01-09T11:55:29.421Z,1.75
2024-01-09T11:56:34.505Z,2.25
2024-01-09T11:57:42.349Z,2.50
2024-01-09T11:58:47.876Z,2.00
2024-01-09T11:59:52.771Z,1.00
2024-01-09T12:00:57.310Z,1.25
2024-01-09T12:02:02.319Z,1.50
2024-01-09T12:03:07.409Z,1.25
2024-01-09T12:04:18.201Z,1.50
2024-01-09T12:05:27.499Z,1.75
2024-01-09T12:06:32.488Z,1.75
2024-01-09T12:07:37.681Z,1.75
2024-01-09T12:08:42.549Z,1.50
2024-01-09T12:09:46.708Z,2.00
2024-01-09T12:10:51.858Z,2.50
2024-01-09T12:11:56.954Z,1.50
2024-01-09T12:13:01.297Z,1.75
2024-01-09T12:14:13.230Z,1.50
2024-01-09T12:15:18.585Z,2.50
2024-01-09T12:16:23.731Z,2.75
2024-01-09T12:17:28.540Z,2.00
2024-01-09T12:18:32.862Z,1.50
2024-01-09T12:19:38.017Z,2.25
2024-01-09T12:20:42.301Z,2.00
2024-01-09T12:21:46.521Z,2.00
2024-01-09T12:22:51.534Z,2.50
2024-01-09T12:24:11.466Z,1.50
2024-01-09T12:25:01.007Z,2.50
2024-01-09T12:26:05.986Z,2.00
2024-01-09T12:27:10.052Z,2.00
2024-01-09T12:28:14.494Z,3.00
2024-01-09T12:29:18.858Z,2.50
2024-01-09T12:30:24.078Z,1.50
2024-01-09T12:31:29.311Z,2.00
2024-01-09T12:32:34.211Z,1.50
2024-01-09T12:33:39.022Z,1.50
2024-01-09T12:34:43.556Z,1.75
2024-01-09T12:35:48.184Z,2.50
2024-01-09T12:36:53.091Z,2.00
2024-01-09T12:37:58.006Z,1.50
2024-01-09T12:39:02.609Z,2.50
2024-01-09T12:40:06.861Z,2.50
2024-01-09T12:41:12.148Z,2.50
2024-01-09T12:42:17.050Z,2.00
2024-01-09T12:43:31.294Z,1.50
2024-01-09T12:44:35.459Z,1.00
2024-01-09T12:45:39.908Z,1.00
2024-01-09T12:46:44.260Z,1.75
2024-01-09T12:47:49.639Z,2.00
2024-01-09T12:48:56.435Z,2.00
2024-01-09T12:50:04.572Z,1.00
2024-01-09T12:51:06.080Z,1.00
2024-01-09T12:52:10.773Z,1.50
2024-01-09T12:53:15.128Z,1.00
2024-01-09T12:54:19.296Z,1.50
2024-01-09T12:55:24.033Z,2.00
2024-01-09T12:56:28.713Z,2.00
2024-01-09T12:57:33.436Z,1.75
2024-01-09T12:58:38.265Z,2.00
2024-01-09T12:59:42.728Z,2.50
2024-01-09T13:00:47.296Z,1.50
2024-01-09T13:01:51.849Z,1.50
2024-01-09T13:02:56.802Z,1.00
2024-01-09T13:04:02.574Z,2.00
2024-01-09T13:05:06.816Z,2.50
2024-01-09T13:06:12.404Z,1.50
2024-01-09T13:07:17.744Z,1.00
2024-01-09T13:08:22.459Z,2.00
2024-01-09T13:09:27.435Z,2.00
2024-01-09T13:10:32.341Z,1.00
2024-01-09T13:11:37.376Z,1.50
2024-01-09T13:12:41.769Z,1.50
2024-01-09T13:13:46.160Z,2.25
2024-01-09T13:14:50.881Z,1.50
2024-01-09T13:15:54.971Z,2.00
2024-01-09T13:17:00.823Z,1.50
2024-01-09T13:18:06.942Z,1.00
2024-01-09T13:19:11.901Z,1.25
2024-01-09T13:20:17.833Z,1.50
2024-01-09T13:21:22.409Z,2.00
2024-01-09T13:24:38.232Z,1.00
2024-01-09T13:25:43.182Z,1.50
2024-01-09T13:26:53.850Z,0.00
2024-01-09T13:27:57.967Z,1.00
2024-01-09T13:31:13.036Z,2.00
2024-01-09T13:32:17.957Z,2.50
2024-01-09T13:33:22.777Z,2.00
2024-01-09T13:34:27.867Z,1.50
2024-01-09T13:35:32.755Z,1.50
2024-01-09T13:36:37.109Z,2.00
2024-01-09T13:37:41.446Z,3.00
2024-01-09T13:38:46.265Z,3.00
2024-01-09T13:39:50.651Z,2.00
2024-01-09T13:40:55.138Z,2.00
2024-01-09T13:41:59.479Z,2.00
2024-01-09T13:43:04.499Z,3.00
2024-01-09T13:44:09.863Z,1.75
2024-01-09T13:45:14.758Z,1.50
2024-01-09T13:46:20.089Z,2.00
2024-01-09T13:47:24.798Z,2.75
2024-01-09T13:48:29.424Z,3.00
2024-01-09T13:49:33.915Z,3.00
2024-01-09T13:51:48.771Z,2.00
2024-01-09T13:51:52.412Z,2.00
2024-01-09T13:52:50.265Z,1.50
2024-01-09T13:53:54.774Z,2.75
2024-01-09T13:54:59.668Z,2.00
2024-01-09T13:56:04.561Z,3.00
2024-01-09T13:57:09.126Z,3.25
2024-01-09T13:58:14.333Z,2.00
2024-01-09T13:59:19.435Z,2.00
2024-01-09T14:00:24.353Z,1.50
2024-01-09T14:01:37.308Z,1.75
2024-01-09T14:02:35.100Z,2.00
2024-01-09T14:03:39.878Z,2.00
2024-01-09T14:04:44.517Z,1.50
2024-01-09T14:05:48.625Z,1.50
2024-01-09T14:06:53.027Z,1.50
2024-01-09T14:07:58.456Z,1.00
2024-01-09T14:09:02.919Z,3.00
2024-01-09T14:10:07.047Z,3.50
2024-01-09T14:11:11.623Z,1.50
2024-01-09T14:12:15.975Z,1.75
2024-01-09T14:13:21.526Z,1.75
2024-01-09T14:14:25.880Z,2.00
2024-01-09T14:15:30.239Z,3.50
2024-01-09T14:16:34.664Z,2.50
2024-01-09T14:17:39.499Z,3.75
2024-01-09T14:18:44.100Z,3.50
2024-01-09T14:19:48.365Z,2.50
2024-01-09T14:20:52.656Z,1.25
2024-01-09T14:21:56.837Z,2.50
2024-01-09T14:23:01.362Z,2.25
2024-01-09T14:24:05.737Z,1.00
2024-01-09T14:25:10.145Z,0.25
2024-01-09T14:26:15.031Z,1.25
2024-01-09T14:27:20.296Z,2.00
2024-01-09T14:28:24.971Z,1.00
2024-01-09T14:29:29.209Z,1.50
2024-01-09T14:30:33.686Z,2.00
2024-01-09T14:31:40.655Z,2.00
2024-01-09T14:32:43.999Z,2.25
2024-01-09T14:33:48.352Z,2.00
2024-01-09T14:34:52.701Z,2.50
2024-01-09T14:35:57.026Z,3.50
2024-01-09T14:37:01.859Z,3.00
2024-01-09T14:38:06.601Z,2.50
2024-01-09T14:39:11.284Z,2.50
2024-01-09T14:40:17.139Z,1.00
2024-01-09T14:41:21.732Z,2.00
2024-01-09T14:42:28.386Z,3.00
2024-01-09T14:43:32.835Z,3.00
2024-01-09T14:44:37.509Z,2.50
2024-01-09T14:45:42.567Z,3.00
2024-01-09T14:46:47.016Z,2.25
2024-01-09T14:47:51.124Z,1.75
2024-01-09T14:48:55.962Z,2.00
2024-01-09T14:50:00.856Z,1.50
2024-01-09T14:51:05.413Z,2.50
2024-01-09T14:52:10.841Z,3.50
2024-01-09T14:53:16.009Z,3.25
2024-01-09T14:54:20.491Z,3.50
2024-01-09T14:55:25.076Z,2.00
2024-01-09T14:56:29.894Z,1.50
2024-01-09T14:57:34.041Z,2.00
2024-01-09T14:58:38.289Z,2.00
2024-01-09T14:59:42.738Z,1.50
2024-01-09T15:00:47.404Z,2.50
2024-01-09T15:01:51.901Z,2.25
2024-01-09T15:02:56.381Z,2.50
2024-01-09T15:04:00.978Z,2.25
2024-01-09T15:05:05.718Z,2.75
2024-01-09T15:06:10.631Z,2.50
2024-01-09T15:07:14.753Z,2.75
2024-01-09T15:08:19.564Z,2.50
2024-01-09T15:09:24.189Z,2.00
2024-01-09T15:10:29.287Z,1.50
2024-01-09T15:11:33.749Z,1.00
2024-01-09T15:12:38.346Z,2.00
2024-01-09T15:13:43.012Z,3.00
2024-01-09T15:14:48.598Z,2.50
2024-01-09T15:15:53.119Z,2.25
2024-01-09T15:16:57.849Z,3.00
2024-01-09T15:18:02.555Z,2.00
2024-01-09T15:19:06.743Z,3.25
2024-01-09T15:20:11.724Z,2.75
2024-01-09T15:21:16.637Z,1.50
2024-01-09T15:22:21.827Z,3.00
2024-01-09T15:23:28.168Z,2.50
2024-01-09T15:24:32.072Z,1.50
2024-01-09T15:25:36.934Z,2.00
2024-01-09T15:26:41.649Z,2.75
2024-01-09T15:27:47.176Z,1.75
2024-01-09T15:28:52.239Z,2.00
2024-01-09T15:29:57.471Z,2.75
2024-01-09T15:31:01.942Z,2.00
2024-01-09T15:32:06.311Z,1.50
2024-01-09T15:33:12.687Z,1.75
2024-01-09T15:34:16.927Z,2.00
2024-01-09T15:35:21.171Z,3.00
2024-01-09T15:36:25.718Z,2.00
2024-01-09T15:37:30.235Z,2.50
2024-01-09T15:38:34.640Z,1.50
2024-01-09T15:39:39.146Z,2.00
2024-01-09T15:40:44.000Z,2.00
2024-01-09T15:41:48.321Z,2.00
2024-01-09T15:42:53.315Z,2.00
2024-01-09T15:43:58.423Z,1.50
2024-01-09T15:45:02.664Z,0.50
2024-01-09T15:46:07.248Z,2.00
2024-01-09T15:47:12.316Z,2.00
2024-01-09T15:48:16.573Z,2.50
2024-01-09T15:49:22.363Z,2.00
2024-01-09T15:50:26.951Z,2.00
2024-01-09T15:51:31.254Z,1.00
2024-01-09T15:52:35.791Z,2.00
2024-01-09T15:53:40.689Z,1.50
2024-01-09T15:54:44.986Z,1.00
2024-01-09T15:55:49.883Z,2.00
2024-01-09T15:56:55.153Z,1.75
2024-01-09T15:58:00.300Z,2.50
2024-01-09T15:59:04.523Z,2.00
2024-01-09T16:00:09.305Z,1.00
2024-01-09T16:01:13.800Z,2.00
2024-01-09T16:02:18.691Z,2.00
2024-01-09T16:03:23.102Z,2.50
2024-01-09T16:04:27.291Z,1.75
2024-01-09T16:05:31.591Z,1.50
2024-01-09T16:06:36.341Z,1.25
2024-01-09T16:07:41.364Z,1.50
2024-01-09T16:08:46.022Z,2.00
2024-01-09T16:09:51.085Z,2.50
2024-01-09T16:10:56.078Z,2.00
2024-01-09T16:12:00.593Z,1.00
2024-01-09T16:13:04.884Z,1.75
2024-01-09T16:14:09.790Z,3.00
2024-01-09T16:15:14.222Z,2.50
2024-01-09T16:16:18.465Z,2.50
2024-01-09T16:17:22.912Z,2.00
2024-01-09T16:18:27.335Z,2.00
2024-01-09T16:19:31.716Z,2.00
2024-01-09T16:20:35.948Z,2.00
2024-01-09T16:21:40.187Z,2.50
2024-01-09T16:22:45.093Z,1.50
2024-01-09T16:23:49.420Z,0.50
2024-01-09T16:24:53.847Z,1.00
2024-01-09T16:25:58.153Z,2.00
2024-01-09T16:27:02.945Z,0.50
2024-01-09T16:28:08.998Z,1.00
2024-01-09T16:29:12.818Z,1.75
2024-01-09T16:30:17.927Z,1.50
2024-01-09T16:31:22.624Z,2.50
2024-01-09T16:32:26.890Z,2.50
2024-01-09T16:33:31.335Z,1.50
2024-01-09T16:34:36.356Z,1.50
2024-01-09T16:35:41.351Z,1.25
2024-01-09T16:36:46.744Z,1.50
2024-01-09T16:37:51.377Z,2.00
2024-01-09T16:38:56.371Z,2.25
2024-01-09T16:40:01.201Z,1.50
2024-01-09T16:41:07.726Z,1.50
2024-01-09T16:42:12.601Z,1.75
2024-01-09T16:43:17.295Z,2.50
2024-01-09T16:44:22.193Z,3.50
2024-01-09T16:45:27.184Z,2.25
2024-01-09T16:46:31.996Z,2.00
2024-01-09T16:47:36.423Z,2.50